sensor_id;sensor_type;location;lat;lon;timestamp;temperature;humidity
74869;DHT22;63419;42.262;12.210;2023-03-01T00:02:24;6.20;99.90
74869;DHT22;63419;42.262;12.210;2023-03-01T00:04:52;6.30;99.90
74869;DHT22;63419;42.262;12.210;2023-03-01T00:07:37;6.30;99.90
74869;DHT22;63419;42.262;12.210;2023-03-01T00:10:05;6.30;99.90
74869;DHT22;63419;42.262;12.210;2023-03-01T00:12:32;6.30;99.90
74869;DHT22;63419;42.262;12.210;2023-03-01T00:14:59;6.30;99.90
74869;DHT22;63419;42.262;12.210;2023-03-01T00:17:27;6.30;99.90
74869;DHT22;63419;42.262;12.210;2023-03-01T00:19:55;6.20;99.90
74869;DHT22;63419;42.262;12.210;2023-03-01T00:22:22;6.20;99.90
74869;DHT22;63419;42.262;12.210;2023-03-01T00:24:51;6.30;99.90
74869;DHT22;63419;42.262;12.210;2023-03-01T00:27:18;6.30;99.90
74869;DHT22;63419;42.262;12.210;2023-03-01T00:29:45;6.30;99.90
74869;DHT22;63419;42.262;12.210;2023-03-01T00:32:13;6.30;99.90
74869;DHT22;63419;42.262;12.210;2023-03-01T00:34:40;6.20;99.90
74869;DHT22;63419;42.262;12.210;2023-03-01T00:37:07;6.20;99.90
74869;DHT22;63419;42.262;12.210;2023-03-01T00:39:35;6.20;99.90
74869;DHT22;63419;42.262;12.210;2023-03-01T00:42:09;6.20;99.90
74869;DHT22;63419;42.262;12.210;2023-03-01T00:44:37;6.20;99.90
74869;DHT22;63419;42.262;12.210;2023-03-01T00:47:04;6.20;99.90
74869;DHT22;63419;42.262;12.210;2023-03-01T00:49:31;6.20;99.90
74869;DHT22;63419;42.262;12.210;2023-03-01T00:51:59;6.20;99.90
74869;DHT22;63419;42.262;12.210;2023-03-01T00:54:26;6.20;99.90
74869;DHT22;63419;42.262;12.210;2023-03-01T00:56:53;6.20;99.90
74869;DHT22;63419;42.262;12.210;2023-03-01T00:59:22;6.10;99.90
74869;DHT22;63419;42.262;12.210;2023-03-01T01:01:51;6.10;99.90
74869;DHT22;63419;42.262;12.210;2023-03-01T01:04:19;6.00;99.90
74869;DHT22;63419;42.262;12.210;2023-03-01T01:06:48;6.00;99.90
74869;DHT22;63419;42.262;12.210;2023-03-01T01:09:17;6.00;99.90
74869;DHT22;63419;42.262;12.210;2023-03-01T01:11:48;6.00;99.90
74869;DHT22;63419;42.262;12.210;2023-03-01T01:14:18;6.00;99.90
74869;DHT22;63419;42.262;12.210;2023-03-01T01:16:46;6.00;99.90
74869;DHT22;63419;42.262;12.210;2023-03-01T01:19:14;6.00;99.90
74869;DHT22;63419;42.262;12.210;2023-03-01T01:21:45;6.00;99.90
74869;DHT22;63419;42.262;12.210;2023-03-01T01:24:16;5.90;99.90
74869;DHT22;63419;42.262;12.210;2023-03-01T01:26:44;6.00;99.90
74869;DHT22;63419;42.262;12.210;2023-03-01T01:29:13;6.00;99.90
74869;DHT22;63419;42.262;12.210;2023-03-01T01:31:42;6.00;99.90
74869;DHT22;63419;42.262;12.210;2023-03-01T01:34:18;6.00;99.90
74869;DHT22;63419;42.262;12.210;2023-03-01T01:36:53;6.10;99.90
74869;DHT22;63419;42.262;12.210;2023-03-01T01:39:22;6.00;99.90
74869;DHT22;63419;42.262;12.210;2023-03-01T01:41:50;6.00;99.90
74869;DHT22;63419;42.262;12.210;2023-03-01T01:44:25;5.90;99.90
74869;DHT22;63419;42.262;12.210;2023-03-01T01:47:20;5.90;99.90
74869;DHT22;63419;42.262;12.210;2023-03-01T01:49:53;5.90;99.90
74869;DHT22;63419;42.262;12.210;2023-03-01T01:52:23;5.90;99.90
74869;DHT22;63419;42.262;12.210;2023-03-01T01:55:10;5.90;99.90
74869;DHT22;63419;42.262;12.210;2023-03-01T01:57:52;6.00;99.90
74869;DHT22;63419;42.262;12.210;2023-03-01T02:00:28;6.00;99.90
74869;DHT22;63419;42.262;12.210;2023-03-01T02:03:03;6.00;99.90
74869;DHT22;63419;42.262;12.210;2023-03-01T02:09:13;6.00;99.90
74869;DHT22;63419;42.262;12.210;2023-03-01T02:11:43;6.10;99.90
74869;DHT22;63419;42.262;12.210;2023-03-01T02:14:11;6.10;99.90
74869;DHT22;63419;42.262;12.210;2023-03-01T02:16:38;6.00;99.90
74869;DHT22;63419;42.262;12.210;2023-03-01T02:19:08;6.00;99.90
74869;DHT22;63419;42.262;12.210;2023-03-01T02:22:00;6.00;99.90
74869;DHT22;63419;42.262;12.210;2023-03-01T02:30:48;6.00;99.90
74869;DHT22;63419;42.262;12.210;2023-03-01T02:33:37;6.00;99.90
74869;DHT22;63419;42.262;12.210;2023-03-01T02:36:11;6.00;99.90
74869;DHT22;63419;42.262;12.210;2023-03-01T02:38:42;6.10;99.90
74869;DHT22;63419;42.262;12.210;2023-03-01T02:41:13;6.10;99.90
74869;DHT22;63419;42.262;12.210;2023-03-01T02:43:45;6.10;99.90
74869;DHT22;63419;42.262;12.210;2023-03-01T02:46:20;6.10;99.90
74869;DHT22;63419;42.262;12.210;2023-03-01T02:51:43;6.10;99.90
74869;DHT22;63419;42.262;12.210;2023-03-01T02:57:01;6.10;99.90
74869;DHT22;63419;42.262;12.210;2023-03-01T02:59:31;6.00;99.90
74869;DHT22;63419;42.262;12.210;2023-03-01T03:02:07;6.00;99.90
74869;DHT22;63419;42.262;12.210;2023-03-01T03:04:47;5.90;99.90
74869;DHT22;63419;42.262;12.210;2023-03-01T03:07:14;5.90;99.90
74869;DHT22;63419;42.262;12.210;2023-03-01T03:09:43;5.90;99.90
74869;DHT22;63419;42.262;12.210;2023-03-01T03:12:14;5.90;99.90
74869;DHT22;63419;42.262;12.210;2023-03-01T03:14:41;6.00;99.90
74869;DHT22;63419;42.262;12.210;2023-03-01T03:17:08;6.00;99.90
74869;DHT22;63419;42.262;12.210;2023-03-01T03:19:35;6.00;99.90
74869;DHT22;63419;42.262;12.210;2023-03-01T03:22:03;6.00;99.90
74869;DHT22;63419;42.262;12.210;2023-03-01T03:24:30;6.00;99.90
74869;DHT22;63419;42.262;12.210;2023-03-01T03:27:06;6.00;99.90
74869;DHT22;63419;42.262;12.210;2023-03-01T03:29:34;5.90;99.90
74869;DHT22;63419;42.262;12.210;2023-03-01T03:32:01;5.90;99.90
74869;DHT22;63419;42.262;12.210;2023-03-01T03:34:30;5.90;99.90
74869;DHT22;63419;42.262;12.210;2023-03-01T03:36:57;5.90;99.90
74869;DHT22;63419;42.262;12.210;2023-03-01T03:39:26;5.90;99.90
74869;DHT22;63419;42.262;12.210;2023-03-01T03:41:56;5.80;99.90
74869;DHT22;63419;42.262;12.210;2023-03-01T03:44:25;5.80;99.90
74869;DHT22;63419;42.262;12.210;2023-03-01T03:46:52;5.70;99.90
74869;DHT22;63419;42.262;12.210;2023-03-01T03:49:19;5.60;99.90
74869;DHT22;63419;42.262;12.210;2023-03-01T03:51:47;5.60;99.90
74869;DHT22;63419;42.262;12.210;2023-03-01T03:54:15;5.50;99.90
74869;DHT22;63419;42.262;12.210;2023-03-01T03:56:44;5.50;99.90
74869;DHT22;63419;42.262;12.210;2023-03-01T03:59:12;5.50;99.90
74869;DHT22;63419;42.262;12.210;2023-03-01T04:01:39;5.50;99.90
74869;DHT22;63419;42.262;12.210;2023-03-01T04:04:08;5.50;99.90
74869;DHT22;63419;42.262;12.210;2023-03-01T04:06:36;5.60;99.90
74869;DHT22;63419;42.262;12.210;2023-03-01T04:09:03;5.60;99.90
74869;DHT22;63419;42.262;12.210;2023-03-01T04:11:30;5.60;99.90
74869;DHT22;63419;42.262;12.210;2023-03-01T04:13:58;5.60;99.90
74869;DHT22;63419;42.262;12.210;2023-03-01T04:16:28;5.60;99.90
74869;DHT22;63419;42.262;12.210;2023-03-01T04:18:55;5.50;99.90
74869;DHT22;63419;42.262;12.210;2023-03-01T04:21:23;5.50;99.90
74869;DHT22;63419;42.262;12.210;2023-03-01T04:23:52;5.60;99.90
74869;DHT22;63419;42.262;12.210;2023-03-01T04:26:20;5.50;99.90
74869;DHT22;63419;42.262;12.210;2023-03-01T04:28:48;5.60;99.90
74869;DHT22;63419;42.262;12.210;2023-03-01T04:31:21;5.60;99.90
74869;DHT22;63419;42.262;12.210;2023-03-01T04:33:53;5.60;99.90
74869;DHT22;63419;42.262;12.210;2023-03-01T04:36:25;5.50;99.90
74869;DHT22;63419;42.262;12.210;2023-03-01T04:44:29;5.60;99.90
74869;DHT22;63419;42.262;12.210;2023-03-01T04:46:57;5.60;99.90
74869;DHT22;63419;42.262;12.210;2023-03-01T04:49:24;5.60;99.90
74869;DHT22;63419;42.262;12.210;2023-03-01T04:51:52;5.50;99.90
74869;DHT22;63419;42.262;12.210;2023-03-01T04:54:19;5.50;99.90
74869;DHT22;63419;42.262;12.210;2023-03-01T04:56:46;5.50;99.90
74869;DHT22;63419;42.262;12.210;2023-03-01T04:59:13;5.50;99.90
74869;DHT22;63419;42.262;12.210;2023-03-01T05:01:40;5.40;99.90
74869;DHT22;63419;42.262;12.210;2023-03-01T05:04:09;5.40;99.90
74869;DHT22;63419;42.262;12.210;2023-03-01T05:06:39;5.40;99.90
74869;DHT22;63419;42.262;12.210;2023-03-01T05:09:07;5.40;99.90
74869;DHT22;63419;42.262;12.210;2023-03-01T05:11:34;5.40;99.90
74869;DHT22;63419;42.262;12.210;2023-03-01T05:14:03;5.30;99.90
74869;DHT22;63419;42.262;12.210;2023-03-01T05:16:32;5.30;99.90
74869;DHT22;63419;42.262;12.210;2023-03-01T05:19:03;5.30;99.90
74869;DHT22;63419;42.262;12.210;2023-03-01T05:21:42;5.30;99.90
74869;DHT22;63419;42.262;12.210;2023-03-01T05:24:30;5.30;99.90
74869;DHT22;63419;42.262;12.210;2023-03-01T05:27:01;5.30;99.90
74869;DHT22;63419;42.262;12.210;2023-03-01T05:29:30;5.30;99.90
74869;DHT22;63419;42.262;12.210;2023-03-01T05:32:02;5.30;99.90
74869;DHT22;63419;42.262;12.210;2023-03-01T05:34:32;5.30;99.90
74869;DHT22;63419;42.262;12.210;2023-03-01T05:37:02;5.30;99.90
74869;DHT22;63419;42.262;12.210;2023-03-01T05:39:30;5.30;99.90
74869;DHT22;63419;42.262;12.210;2023-03-01T05:42:00;5.30;99.90
74869;DHT22;63419;42.262;12.210;2023-03-01T05:44:28;5.30;99.90
74869;DHT22;63419;42.262;12.210;2023-03-01T05:46:56;5.30;99.90
74869;DHT22;63419;42.262;12.210;2023-03-01T05:49:24;5.20;99.90
74869;DHT22;63419;42.262;12.210;2023-03-01T05:51:53;5.30;99.90
74869;DHT22;63419;42.262;12.210;2023-03-01T05:54:20;5.20;99.90
74869;DHT22;63419;42.262;12.210;2023-03-01T05:56:48;5.30;99.90
74869;DHT22;63419;42.262;12.210;2023-03-01T05:59:16;5.20;99.90
74869;DHT22;63419;42.262;12.210;2023-03-01T06:01:43;5.20;99.90
74869;DHT22;63419;42.262;12.210;2023-03-01T06:04:10;5.20;99.90
74869;DHT22;63419;42.262;12.210;2023-03-01T06:06:37;5.20;99.90
74869;DHT22;63419;42.262;12.210;2023-03-01T06:09:08;5.20;99.90
74869;DHT22;63419;42.262;12.210;2023-03-01T06:11:36;5.20;99.90
74869;DHT22;63419;42.262;12.210;2023-03-01T06:14:05;5.30;99.90
74869;DHT22;63419;42.262;12.210;2023-03-01T06:16:33;5.30;99.90
74869;DHT22;63419;42.262;12.210;2023-03-01T06:19:00;5.20;99.90
74869;DHT22;63419;42.262;12.210;2023-03-01T06:21:28;5.30;99.90
74869;DHT22;63419;42.262;12.210;2023-03-01T06:23:55;5.20;99.90
74869;DHT22;63419;42.262;12.210;2023-03-01T06:26:22;5.20;99.90
74869;DHT22;63419;42.262;12.210;2023-03-01T06:28:51;5.20;99.90
74869;DHT22;63419;42.262;12.210;2023-03-01T06:31:19;5.30;99.90
74869;DHT22;63419;42.262;12.210;2023-03-01T06:33:47;5.40;99.90
74869;DHT22;63419;42.262;12.210;2023-03-01T06:36:15;5.40;99.90
74869;DHT22;63419;42.262;12.210;2023-03-01T06:38:45;5.50;99.90
74869;DHT22;63419;42.262;12.210;2023-03-01T06:41:12;5.60;99.90
74869;DHT22;63419;42.262;12.210;2023-03-01T06:43:39;5.60;99.90
74869;DHT22;63419;42.262;12.210;2023-03-01T06:46:07;5.70;99.90
74869;DHT22;63419;42.262;12.210;2023-03-01T06:48:34;5.80;99.90
74869;DHT22;63419;42.262;12.210;2023-03-01T06:51:02;6.00;99.90
74869;DHT22;63419;42.262;12.210;2023-03-01T06:53:30;6.00;99.90
74869;DHT22;63419;42.262;12.210;2023-03-01T06:55:57;6.10;99.90
74869;DHT22;63419;42.262;12.210;2023-03-01T06:58:26;6.00;99.90
74869;DHT22;63419;42.262;12.210;2023-03-01T07:00:54;5.90;99.90
74869;DHT22;63419;42.262;12.210;2023-03-01T07:03:21;5.90;99.90
74869;DHT22;63419;42.262;12.210;2023-03-01T07:05:50;6.00;99.90
74869;DHT22;63419;42.262;12.210;2023-03-01T07:08:20;6.10;99.90
74869;DHT22;63419;42.262;12.210;2023-03-01T07:10:47;6.20;99.90
74869;DHT22;63419;42.262;12.210;2023-03-01T07:13:18;6.20;99.90
74869;DHT22;63419;42.262;12.210;2023-03-01T07:15:45;6.10;99.90
74869;DHT22;63419;42.262;12.210;2023-03-01T07:18:12;6.00;99.90
74869;DHT22;63419;42.262;12.210;2023-03-01T07:20:42;6.10;99.90
74869;DHT22;63419;42.262;12.210;2023-03-01T07:23:12;6.10;99.90
74869;DHT22;63419;42.262;12.210;2023-03-01T07:25:42;6.30;99.90
74869;DHT22;63419;42.262;12.210;2023-03-01T07:28:19;6.50;99.90
74869;DHT22;63419;42.262;12.210;2023-03-01T07:30:53;6.50;99.90
74869;DHT22;63419;42.262;12.210;2023-03-01T07:33:24;6.60;99.90
74869;DHT22;63419;42.262;12.210;2023-03-01T07:35:59;6.60;99.90
74869;DHT22;63419;42.262;12.210;2023-03-01T07:38:31;6.90;99.90
74869;DHT22;63419;42.262;12.210;2023-03-01T07:41:03;7.10;99.90
74869;DHT22;63419;42.262;12.210;2023-03-01T07:43:37;7.10;99.90
74869;DHT22;63419;42.262;12.210;2023-03-01T07:46:11;7.30;99.90
74869;DHT22;63419;42.262;12.210;2023-03-01T07:48:46;7.40;99.90
74869;DHT22;63419;42.262;12.210;2023-03-01T07:51:13;7.50;99.90
74869;DHT22;63419;42.262;12.210;2023-03-01T07:53:40;7.60;99.90
74869;DHT22;63419;42.262;12.210;2023-03-01T07:56:10;7.50;99.90
74869;DHT22;63419;42.262;12.210;2023-03-01T07:58:41;7.70;99.90
74869;DHT22;63419;42.262;12.210;2023-03-01T08:01:12;8.00;99.90
74869;DHT22;63419;42.262;12.210;2023-03-01T08:03:41;8.10;99.90
74869;DHT22;63419;42.262;12.210;2023-03-01T08:06:13;8.10;99.90
74869;DHT22;63419;42.262;12.210;2023-03-01T08:08:43;8.00;99.90
74869;DHT22;63419;42.262;12.210;2023-03-01T08:11:16;8.00;99.90
74869;DHT22;63419;42.262;12.210;2023-03-01T08:13:48;8.10;99.90
74869;DHT22;63419;42.262;12.210;2023-03-01T08:16:19;8.20;99.90
74869;DHT22;63419;42.262;12.210;2023-03-01T08:18:52;8.40;99.90
74869;DHT22;63419;42.262;12.210;2023-03-01T08:21:21;8.50;99.90
74869;DHT22;63419;42.262;12.210;2023-03-01T08:23:50;8.70;99.90
74869;DHT22;63419;42.262;12.210;2023-03-01T08:26:21;8.90;99.90
74869;DHT22;63419;42.262;12.210;2023-03-01T08:28:50;8.80;99.90
74869;DHT22;63419;42.262;12.210;2023-03-01T08:31:25;8.80;99.90
74869;DHT22;63419;42.262;12.210;2023-03-01T08:33:59;8.80;99.90
74869;DHT22;63419;42.262;12.210;2023-03-01T08:36:38;8.70;99.90
74869;DHT22;63419;42.262;12.210;2023-03-01T08:39:10;8.70;99.90
74869;DHT22;63419;42.262;12.210;2023-03-01T08:41:41;9.00;99.90
74869;DHT22;63419;42.262;12.210;2023-03-01T08:44:13;9.40;99.90
74869;DHT22;63419;42.262;12.210;2023-03-01T08:46:48;9.60;99.90
74869;DHT22;63419;42.262;12.210;2023-03-01T08:49:20;9.80;99.90
74869;DHT22;63419;42.262;12.210;2023-03-01T08:51:50;10.00;99.90
74869;DHT22;63419;42.262;12.210;2023-03-01T08:54:20;10.50;99.90
74869;DHT22;63419;42.262;12.210;2023-03-01T08:56:50;10.90;99.90
74869;DHT22;63419;42.262;12.210;2023-03-01T08:59:19;11.10;99.90
74869;DHT22;63419;42.262;12.210;2023-03-01T09:01:47;11.10;99.90
74869;DHT22;63419;42.262;12.210;2023-03-01T09:04:17;10.90;99.90
74869;DHT22;63419;42.262;12.210;2023-03-01T09:06:46;10.80;99.90
74869;DHT22;63419;42.262;12.210;2023-03-01T09:09:17;10.60;99.90
74869;DHT22;63419;42.262;12.210;2023-03-01T09:11:46;10.70;99.90
74869;DHT22;63419;42.262;12.210;2023-03-01T09:14:14;10.70;99.90
74869;DHT22;63419;42.262;12.210;2023-03-01T09:16:43;10.70;99.90
74869;DHT22;63419;42.262;12.210;2023-03-01T09:19:13;10.70;99.90
74869;DHT22;63419;42.262;12.210;2023-03-01T09:21:45;10.40;99.90
74869;DHT22;63419;42.262;12.210;2023-03-01T09:24:19;10.30;99.90
74869;DHT22;63419;42.262;12.210;2023-03-01T09:26:51;10.40;99.90
74869;DHT22;63419;42.262;12.210;2023-03-01T09:29:22;10.50;99.90
74869;DHT22;63419;42.262;12.210;2023-03-01T09:31:51;10.50;99.90
74869;DHT22;63419;42.262;12.210;2023-03-01T09:34:23;10.20;99.90
74869;DHT22;63419;42.262;12.210;2023-03-01T09:36:57;9.80;99.90
74869;DHT22;63419;42.262;12.210;2023-03-01T09:39:29;9.90;99.90
74869;DHT22;63419;42.262;12.210;2023-03-01T09:42:03;10.00;99.90
74869;DHT22;63419;42.262;12.210;2023-03-01T09:47:26;11.00;99.90
74869;DHT22;63419;42.262;12.210;2023-03-01T09:56:22;11.60;99.90
74869;DHT22;63419;42.262;12.210;2023-03-01T09:59:13;11.50;99.90
74869;DHT22;63419;42.262;12.210;2023-03-01T10:04:52;10.40;99.90
74869;DHT22;63419;42.262;12.210;2023-03-01T10:10:46;10.20;99.90
74869;DHT22;63419;42.262;12.210;2023-03-01T10:13:24;10.10;99.90
74869;DHT22;63419;42.262;12.210;2023-03-01T10:17:02;10.30;99.90
74869;DHT22;63419;42.262;12.210;2023-03-01T10:19:44;10.30;99.90
74869;DHT22;63419;42.262;12.210;2023-03-01T10:22:22;10.40;99.90
74869;DHT22;63419;42.262;12.210;2023-03-01T10:24:58;10.30;99.90
74869;DHT22;63419;42.262;12.210;2023-03-01T10:28:01;10.50;99.90
74869;DHT22;63419;42.262;12.210;2023-03-01T10:30:38;11.00;99.90
74869;DHT22;63419;42.262;12.210;2023-03-01T10:33:29;11.30;99.90
74869;DHT22;63419;42.262;12.210;2023-03-01T10:35:59;11.30;99.90
74869;DHT22;63419;42.262;12.210;2023-03-01T10:38:30;11.40;99.90
74869;DHT22;63419;42.262;12.210;2023-03-01T10:41:14;11.40;99.90
74869;DHT22;63419;42.262;12.210;2023-03-01T10:43:50;11.40;99.90
74869;DHT22;63419;42.262;12.210;2023-03-01T10:46:34;10.80;99.90
74869;DHT22;63419;42.262;12.210;2023-03-01T10:49:16;10.70;99.90
74869;DHT22;63419;42.262;12.210;2023-03-01T10:51:53;10.40;99.90
74869;DHT22;63419;42.262;12.210;2023-03-01T10:54:30;10.40;99.90
74869;DHT22;63419;42.262;12.210;2023-03-01T10:57:02;10.40;99.90
74869;DHT22;63419;42.262;12.210;2023-03-01T10:59:36;10.30;99.90
74869;DHT22;63419;42.262;12.210;2023-03-01T11:05:24;10.80;99.90
74869;DHT22;63419;42.262;12.210;2023-03-01T11:07:57;10.90;99.90
74869;DHT22;63419;42.262;12.210;2023-03-01T11:10:28;10.70;99.90
74869;DHT22;63419;42.262;12.210;2023-03-01T11:13:26;10.60;99.90
74869;DHT22;63419;42.262;12.210;2023-03-01T11:16:02;10.40;99.90
74869;DHT22;63419;42.262;12.210;2023-03-01T11:18:34;10.00;99.90
74869;DHT22;63419;42.262;12.210;2023-03-01T11:21:15;9.90;99.90
74869;DHT22;63419;42.262;12.210;2023-03-01T11:23:45;9.70;99.90
74869;DHT22;63419;42.262;12.210;2023-03-01T11:26:15;9.60;99.90
74869;DHT22;63419;42.262;12.210;2023-03-01T11:28:49;9.50;99.90
74869;DHT22;63419;42.262;12.210;2023-03-01T11:31:24;9.50;99.90
74869;DHT22;63419;42.262;12.210;2023-03-01T11:34:02;9.50;99.90
74869;DHT22;63419;42.262;12.210;2023-03-01T11:36:56;9.60;99.90
74869;DHT22;63419;42.262;12.210;2023-03-01T11:43:09;9.80;99.90
74869;DHT22;63419;42.262;12.210;2023-03-01T11:55:46;12.30;99.90
74869;DHT22;63419;42.262;12.210;2023-03-01T11:58:46;13.40;99.90
74869;DHT22;63419;42.262;12.210;2023-03-01T12:01:32;13.30;99.90
74869;DHT22;63419;42.262;12.210;2023-03-01T12:16:18;15.90;99.90
74869;DHT22;63419;42.262;12.210;2023-03-01T12:25:21;16.30;99.90
74869;DHT22;63419;42.262;12.210;2023-03-01T12:31:09;14.70;99.90
74869;DHT22;63419;42.262;12.210;2023-03-01T12:43:41;15.00;99.90
74869;DHT22;63419;42.262;12.210;2023-03-01T12:46:41;15.30;99.90
74869;DHT22;63419;42.262;12.210;2023-03-01T12:49:31;15.10;99.90
74869;DHT22;63419;42.262;12.210;2023-03-01T12:52:41;15.60;99.90
74869;DHT22;63419;42.262;12.210;2023-03-01T13:00:41;14.90;99.90
74869;DHT22;63419;42.262;12.210;2023-03-01T13:03:56;15.50;99.90
74869;DHT22;63419;42.262;12.210;2023-03-01T13:09:35;16.70;99.90
74869;DHT22;63419;42.262;12.210;2023-03-01T13:17:50;16.40;99.90
74869;DHT22;63419;42.262;12.210;2023-03-01T13:21:00;14.90;99.90
74869;DHT22;63419;42.262;12.210;2023-03-01T13:23:37;14.70;99.90
74869;DHT22;63419;42.262;12.210;2023-03-01T13:26:17;15.10;99.90
74869;DHT22;63419;42.262;12.210;2023-03-01T13:28:55;15.00;99.90
74869;DHT22;63419;42.262;12.210;2023-03-01T13:34:02;17.20;99.90
74869;DHT22;63419;42.262;12.210;2023-03-01T13:39:28;16.90;99.90
74869;DHT22;63419;42.262;12.210;2023-03-01T13:42:33;16.90;99.90
74869;DHT22;63419;42.262;12.210;2023-03-01T13:45:16;15.80;99.90
74869;DHT22;63419;42.262;12.210;2023-03-01T13:47:46;15.80;99.90
74869;DHT22;63419;42.262;12.210;2023-03-01T13:50:27;15.30;99.90
74869;DHT22;63419;42.262;12.210;2023-03-01T13:53:04;14.70;99.90
74869;DHT22;63419;42.262;12.210;2023-03-01T13:55:42;14.10;99.90
74869;DHT22;63419;42.262;12.210;2023-03-01T13:58:29;13.10;99.90
74869;DHT22;63419;42.262;12.210;2023-03-01T14:01:05;12.70;99.90
74869;DHT22;63419;42.262;12.210;2023-03-01T14:03:41;12.10;99.90
74869;DHT22;63419;42.262;12.210;2023-03-01T14:06:16;11.90;99.90
74869;DHT22;63419;42.262;12.210;2023-03-01T14:08:50;13.40;99.90
74869;DHT22;63419;42.262;12.210;2023-03-01T14:14:48;16.60;99.90
74869;DHT22;63419;42.262;12.210;2023-03-01T14:20:45;17.90;99.90
74869;DHT22;63419;42.262;12.210;2023-03-01T14:23:24;17.90;99.90
74869;DHT22;63419;42.262;12.210;2023-03-01T14:25:55;16.90;99.90
74869;DHT22;63419;42.262;12.210;2023-03-01T14:28:30;16.90;99.90
74869;DHT22;63419;42.262;12.210;2023-03-01T14:31:39;17.10;99.90
74869;DHT22;63419;42.262;12.210;2023-03-01T14:34:23;17.20;99.90
74869;DHT22;63419;42.262;12.210;2023-03-01T14:36:51;17.70;99.90
74869;DHT22;63419;42.262;12.210;2023-03-01T14:39:22;18.00;99.90
74869;DHT22;63419;42.262;12.210;2023-03-01T14:41:53;18.30;99.90
74869;DHT22;63419;42.262;12.210;2023-03-01T14:44:22;17.90;99.90
74869;DHT22;63419;42.262;12.210;2023-03-01T14:46:53;18.00;99.90
74869;DHT22;63419;42.262;12.210;2023-03-01T14:49:27;18.00;99.90
74869;DHT22;63419;42.262;12.210;2023-03-01T14:54:41;16.50;99.90
74869;DHT22;63419;42.262;12.210;2023-03-01T14:57:25;16.40;99.90
74869;DHT22;63419;42.262;12.210;2023-03-01T14:59:55;15.90;99.90
74869;DHT22;63419;42.262;12.210;2023-03-01T15:02:26;15.20;99.90
74869;DHT22;63419;42.262;12.210;2023-03-01T15:04:59;14.40;99.90
74869;DHT22;63419;42.262;12.210;2023-03-01T15:07:32;13.40;99.90
74869;DHT22;63419;42.262;12.210;2023-03-01T15:10:04;13.50;99.90
74869;DHT22;63419;42.262;12.210;2023-03-01T15:12:38;13.60;99.90
74869;DHT22;63419;42.262;12.210;2023-03-01T15:19:05;13.10;99.90
74869;DHT22;63419;42.262;12.210;2023-03-01T15:21:37;13.50;99.90
74869;DHT22;63419;42.262;12.210;2023-03-01T15:29:30;15.30;99.90
74869;DHT22;63419;42.262;12.210;2023-03-01T15:32:06;14.90;99.90
74869;DHT22;63419;42.262;12.210;2023-03-01T15:34:50;15.10;99.90
74869;DHT22;63419;42.262;12.210;2023-03-01T15:43:00;15.00;99.90
74869;DHT22;63419;42.262;12.210;2023-03-01T15:45:30;14.70;99.90
74869;DHT22;63419;42.262;12.210;2023-03-01T15:48:02;14.00;99.90
74869;DHT22;63419;42.262;12.210;2023-03-01T15:50:42;13.70;99.90
74869;DHT22;63419;42.262;12.210;2023-03-01T15:53:15;13.90;99.90
74869;DHT22;63419;42.262;12.210;2023-03-01T15:55:42;14.30;99.90
74869;DHT22;63419;42.262;12.210;2023-03-01T15:58:14;14.70;99.90
74869;DHT22;63419;42.262;12.210;2023-03-01T16:00:44;14.70;99.90
74869;DHT22;63419;42.262;12.210;2023-03-01T16:03:26;14.70;99.90
74869;DHT22;63419;42.262;12.210;2023-03-01T16:05:54;14.70;99.90
74869;DHT22;63419;42.262;12.210;2023-03-01T16:08:21;14.70;99.90
74869;DHT22;63419;42.262;12.210;2023-03-01T16:10:49;14.70;99.90
74869;DHT22;63419;42.262;12.210;2023-03-01T16:13:17;14.50;99.90
74869;DHT22;63419;42.262;12.210;2023-03-01T16:15:46;14.50;99.90
74869;DHT22;63419;42.262;12.210;2023-03-01T16:18:13;14.60;99.90
74869;DHT22;63419;42.262;12.210;2023-03-01T16:20:41;14.60;99.90
74869;DHT22;63419;42.262;12.210;2023-03-01T16:23:10;14.40;99.90
74869;DHT22;63419;42.262;12.210;2023-03-01T16:25:37;13.70;99.90
74869;DHT22;63419;42.262;12.210;2023-03-01T16:28:05;13.30;99.90
74869;DHT22;63419;42.262;12.210;2023-03-01T16:30:37;12.80;99.90
74869;DHT22;63419;42.262;12.210;2023-03-01T16:33:06;12.50;99.90
74869;DHT22;63419;42.262;12.210;2023-03-01T16:35:54;12.10;99.90
74869;DHT22;63419;42.262;12.210;2023-03-01T16:38:22;11.70;99.90
74869;DHT22;63419;42.262;12.210;2023-03-01T16:40:51;11.40;99.90
74869;DHT22;63419;42.262;12.210;2023-03-01T16:43:19;11.00;99.90
74869;DHT22;63419;42.262;12.210;2023-03-01T16:45:46;10.70;99.90
74869;DHT22;63419;42.262;12.210;2023-03-01T16:48:13;10.40;99.90
74869;DHT22;63419;42.262;12.210;2023-03-01T16:50:43;10.00;99.90
74869;DHT22;63419;42.262;12.210;2023-03-01T16:53:11;9.50;99.90
74869;DHT22;63419;42.262;12.210;2023-03-01T16:55:39;9.10;99.90
74869;DHT22;63419;42.262;12.210;2023-03-01T16:58:12;8.80;99.90
74869;DHT22;63419;42.262;12.210;2023-03-01T17:00:39;8.50;99.90
74869;DHT22;63419;42.262;12.210;2023-03-01T17:03:06;8.30;99.90
74869;DHT22;63419;42.262;12.210;2023-03-01T17:05:33;8.20;99.90
74869;DHT22;63419;42.262;12.210;2023-03-01T17:08:01;8.00;99.90
74869;DHT22;63419;42.262;12.210;2023-03-01T17:10:28;7.90;99.90
74869;DHT22;63419;42.262;12.210;2023-03-01T17:12:55;7.80;99.90
74869;DHT22;63419;42.262;12.210;2023-03-01T17:15:22;7.70;99.90
74869;DHT22;63419;42.262;12.210;2023-03-01T17:17:50;7.60;99.90
74869;DHT22;63419;42.262;12.210;2023-03-01T17:20:18;7.50;99.90
74869;DHT22;63419;42.262;12.210;2023-03-01T17:22:45;7.40;99.90
74869;DHT22;63419;42.262;12.210;2023-03-01T17:25:14;7.40;99.90
74869;DHT22;63419;42.262;12.210;2023-03-01T17:27:41;7.30;99.90
74869;DHT22;63419;42.262;12.210;2023-03-01T17:30:11;7.20;99.90
74869;DHT22;63419;42.262;12.210;2023-03-01T17:32:40;7.10;99.90
74869;DHT22;63419;42.262;12.210;2023-03-01T17:35:08;7.10;99.90
74869;DHT22;63419;42.262;12.210;2023-03-01T17:37:38;7.10;99.90
74869;DHT22;63419;42.262;12.210;2023-03-01T17:40:12;7.00;99.90
74869;DHT22;63419;42.262;12.210;2023-03-01T17:42:39;7.00;99.90
74869;DHT22;63419;42.262;12.210;2023-03-01T17:45:07;6.90;99.90
74869;DHT22;63419;42.262;12.210;2023-03-01T17:47:34;6.90;99.90
74869;DHT22;63419;42.262;12.210;2023-03-01T17:50:01;6.90;99.90
74869;DHT22;63419;42.262;12.210;2023-03-01T17:52:31;6.90;99.90
74869;DHT22;63419;42.262;12.210;2023-03-01T17:54:58;6.80;99.90
74869;DHT22;63419;42.262;12.210;2023-03-01T17:57:25;6.80;99.90
74869;DHT22;63419;42.262;12.210;2023-03-01T17:59:52;6.80;99.90
74869;DHT22;63419;42.262;12.210;2023-03-01T18:02:20;6.80;99.90
74869;DHT22;63419;42.262;12.210;2023-03-01T18:04:47;6.80;99.90
74869;DHT22;63419;42.262;12.210;2023-03-01T18:07:14;6.60;99.90